Terminal Aerodrome Forecast
Issued by NWS Sioux Falls, SD

Home | Current Version | Previous Version | Graphics & Text | Print | Product List | Glossary On
Versions: 1 2 3 4 5 6 7 8 9 10 11 12 13
000
FTUS43 KFSD 271129
TAFHON
TAF
KHON 271129Z 2712/2812 19004KT P6SM SCT200
     FM271700 23006KT P6SM SCT050
     FM280100 21008KT P6SM BKN100 PROB30 2803/2805 -SHRA BKN070
     FM280500 31007KT P6SM SCT060=

USA.gov is the U.S. government's official web portal to all federal, state and local government web resources and services.